Bartow, Florida
Current Conditions -  °F | °C
As of 4:47 PM on Sunday 25 Jan 2015 (Local Time) from KBOW Reporting Station
Broken Clouds Broken Clouds  
Wind Chill: 17°   Ceiling: 20000
Heat Index: 17°   Visibility: 10mi
Dew Point:   Wind: 5mph
Humidity: 42%   Direction: 330°NNW
Pressure: 29.99"   Gusts: NA
Location:  27.9°N, 81.84°W
Report Text: KBOW 252147Z 33004KT 10SM BKN200 17/04 A2999
Loading
Personal Weather Stations






























Interactive Weather Map New forecast layout! Learn more

10-Day Weather Forecast

Advertisements
Track Severe Weather on mobile